createdAt,value
2022-12-09T06:15:48.674Z,0.54
2022-12-09T06:16:55.169Z,0.56
2022-12-09T06:17:59.778Z,0.62
2022-12-09T06:19:06.774Z,0.66
2022-12-09T06:20:11.061Z,0.68
2022-12-09T06:21:16.388Z,0.64
2022-12-09T06:22:20.819Z,0.69
2022-12-09T06:23:25.418Z,0.78
2022-12-09T06:24:30.940Z,0.74
2022-12-09T06:25:34.385Z,0.78
2022-12-09T06:26:38.206Z,0.84
2022-12-09T06:27:42.312Z,0.89
2022-12-09T06:28:45.662Z,0.94
2022-12-09T06:29:48.994Z,0.92
2022-12-09T06:30:51.807Z,0.91
2022-12-09T06:31:55.599Z,0.86
2022-12-09T06:32:59.291Z,0.86
2022-12-09T06:34:03.725Z,0.94
2022-12-09T06:35:10.428Z,0.96
2022-12-09T06:36:15.008Z,1.02
2022-12-09T06:37:18.793Z,1.11
2022-12-09T06:38:24.352Z,0.98
2022-12-09T06:39:29.800Z,0.96
2022-12-09T06:40:33.536Z,1.00
2022-12-09T06:41:38.846Z,0.98
2022-12-09T06:42:41.344Z,1.05
2022-12-09T06:43:44.686Z,1.14
2022-12-09T06:44:48.411Z,1.20
2022-12-09T06:45:52.470Z,1.27
2022-12-09T06:46:56.267Z,1.09
2022-12-09T06:48:01.107Z,1.01
2022-12-09T06:49:05.101Z,0.93
2022-12-09T06:50:14.026Z,1.08
2022-12-09T06:51:19.707Z,1.20
2022-12-09T06:52:23.540Z,1.31
2022-12-09T06:53:26.531Z,1.40
2022-12-09T06:54:32.843Z,1.45
2022-12-09T06:55:37.360Z,1.50
2022-12-09T06:56:41.346Z,1.57
2022-12-09T06:57:48.049Z,1.58
2022-12-09T06:58:52.063Z,1.57
2022-12-09T06:59:55.786Z,1.56
2022-12-09T07:01:16.620Z,1.68
2022-12-09T07:02:20.727Z,1.74
2022-12-09T07:03:23.887Z,1.77
2022-12-09T07:04:29.635Z,1.81
2022-12-09T07:05:33.600Z,1.92
2022-12-09T07:06:57.421Z,1.92
2022-12-09T07:08:02.039Z,2.04
2022-12-09T07:09:15.660Z,2.07
2022-12-09T07:10:20.833Z,2.14
2022-12-09T07:11:24.798Z,2.11
2022-12-09T07:12:28.528Z,2.02
2022-12-09T12:52:57.195Z,3.37
2022-12-09T12:54:10.805Z,3.30
2022-12-09T13:07:34.083Z,2.94
2022-12-09T13:10:24.653Z,3.02
2022-12-09T13:11:44.768Z,3.01
2022-12-09T13:12:55.628Z,2.94
2022-12-09T13:14:05.444Z,2.92
2022-12-09T13:15:17.981Z,2.93
2022-12-09T13:17:46.421Z,2.71
2022-12-09T13:18:50.556Z,2.64
2022-12-09T13:20:00.579Z,2.59
2022-12-09T13:21:06.368Z,2.51
2022-12-09T13:23:54.081Z,2.41
2022-12-09T13:25:28.885Z,2.26
2022-12-09T13:26:50.060Z,2.27
2022-12-09T13:27:59.397Z,2.40
2022-12-09T13:29:32.289Z,2.35
2022-12-09T13:30:58.570Z,2.46
2022-12-09T13:32:04.803Z,2.59
2022-12-09T13:33:23.061Z,2.60
2022-12-09T13:34:40.949Z,2.59
2022-12-09T13:36:09.814Z,2.51
2022-12-09T13:37:36.617Z,2.54
2022-12-09T13:38:43.515Z,2.62
2022-12-09T13:39:58.553Z,2.52
2022-12-09T13:41:21.553Z,2.58
2022-12-09T13:42:53.307Z,2.45
2022-12-09T13:44:09.816Z,2.51
2022-12-09T13:45:26.164Z,2.52
2022-12-09T13:46:29.972Z,2.58
2022-12-09T13:47:37.248Z,2.62
2022-12-09T13:48:48.240Z,2.64
2022-12-09T13:51:12.724Z,2.61
2022-12-09T13:52:20.200Z,2.61
2022-12-09T13:53:40.000Z,2.65
2022-12-09T13:54:46.358Z,2.61
2022-12-09T13:55:56.968Z,2.64
2022-12-09T13:57:05.038Z,2.46
2022-12-09T13:58:30.465Z,2.53
2022-12-09T13:59:46.439Z,2.45
2022-12-09T14:01:04.728Z,2.46
